Time;durP1;ratioP1;P1;durP2;ratioP2;P2;SDS_P1;SDS_P2;PMS_P1;PMS_P2;Temp;Humidity;BMP_temperature;BMP_pressure;BME280_temperature;BME280_humidity;BME280_pressure;Samples;Min_cycle;Max_cycle;Signal;HPM_P1;HPM_P2
2023/03/05 00:00:49;;;;;;;45.42;23.13;;;4.90;98.30;;;;;;6176372;28;20477;-77
2023/03/05 00:03:52;;;;;;;49.80;24.45;;;4.90;98.30;;;;;;6173658;28;20504;-77
2023/03/05 00:06:54;;;;;;;40.60;19.23;;;4.90;98.30;;;;;;6173496;28;20051;-77
2023/03/05 00:09:59;;;;;;;45.05;22.20;;;4.90;98.30;;;;;;6173777;28;20047;-77
2023/03/05 00:13:00;;;;;;;48.35;20.08;;;4.90;98.40;;;;;;6173213;28;20042;-77
2023/03/05 00:16:03;;;;;;;44.63;20.92;;;4.90;98.40;;;;;;6173201;28;20393;-77
2023/03/05 00:19:05;;;;;;;42.72;21.77;;;4.90;98.40;;;;;;6173749;28;20102;-77
2023/03/05 00:22:07;;;;;;;39.13;20.08;;;4.90;98.50;;;;;;6173176;28;20057;-77
2023/03/05 00:25:11;;;;;;;43.35;20.70;;;4.90;98.50;;;;;;6173175;28;20046;-77
2023/03/05 00:28:12;;;;;;;45.97;24.75;;;4.90;98.50;;;;;;6175901;28;20089;-77
2023/03/05 00:31:14;;;;;;;40.30;21.10;;;4.90;98.50;;;;;;6177496;28;20053;-77
2023/03/05 00:34:18;;;;;;;42.58;21.00;;;4.90;98.60;;;;;;6178594;28;20420;-77
2023/03/05 00:37:20;;;;;;;36.80;18.83;;;4.90;98.50;;;;;;6177273;28;20069;-77
2023/03/05 00:40:23;;;;;;;46.60;21.35;;;4.80;98.50;;;;;;6178240;28;20047;-77
2023/03/05 00:43:25;;;;;;;40.60;19.40;;;4.90;98.60;;;;;;6202047;28;20053;-77
2023/03/05 00:46:27;;;;;;;41.20;19.90;;;4.90;98.60;;;;;;6205520;28;20050;-78
2023/03/05 00:49:28;;;;;;;38.60;21.13;;;4.90;98.60;;;;;;6207627;28;20053;-78
2023/03/05 00:52:30;;;;;;;41.70;18.30;;;4.80;98.60;;;;;;6207855;28;20525;-78
2023/03/05 00:55:34;;;;;;;38.85;19.88;;;4.80;98.60;;;;;;6207778;28;20050;-78
2023/03/05 00:58:36;;;;;;;46.90;20.85;;;4.80;98.70;;;;;;6207626;28;20065;-78
2023/03/05 01:01:38;;;;;;;42.05;18.70;;;4.90;98.70;;;;;;6208671;28;20047;-78
2023/03/05 01:04:40;;;;;;;47.78;22.25;;;4.90;98.70;;;;;;6207578;28;20050;-78
2023/03/05 01:07:42;;;;;;;38.67;18.90;;;4.90;98.60;;;;;;6205380;28;20053;-77
2023/03/05 01:10:45;;;;;;;38.00;19.10;;;4.90;98.60;;;;;;6202903;28;20065;-77
2023/03/05 01:13:46;;;;;;;36.95;17.45;;;4.90;98.70;;;;;;6203507;28;20046;-77
2023/03/05 01:16:48;;;;;;;44.85;18.95;;;4.90;98.60;;;;;;6202493;28;20053;-77
2023/03/05 01:19:50;;;;;;;33.85;16.55;;;4.90;98.60;;;;;;6203158;28;20513;-77
2023/03/05 01:22:51;;;;;;;42.13;20.73;;;4.90;98.60;;;;;;6188236;28;20046;-77
2023/03/05 01:25:55;;;;;;;40.25;19.05;;;4.90;98.70;;;;;;6178759;28;20057;-77
2023/03/05 01:28:57;;;;;;;36.42;19.20;;;4.80;98.70;;;;;;6178560;28;20075;-78
2023/03/05 01:32:01;;;;;;;36.83;16.77;;;4.90;98.70;;;;;;6170191;28;20051;-78
2023/03/05 01:35:04;;;;;;;42.72;18.27;;;4.80;98.70;;;;;;6159399;28;20047;-78
2023/03/05 01:38:06;;;;;;;35.08;17.30;;;4.80;98.70;;;;;;6179253;28;20050;-77
2023/03/05 01:41:09;;;;;;;42.15;18.48;;;4.80;98.70;;;;;;6184477;28;20053;-77
2023/03/05 01:44:21;;;;;;;38.85;18.40;;;4.80;98.80;;;;;;6201988;28;20528;-77
2023/03/05 01:47:22;;;;;;;34.00;16.13;;;4.90;98.90;;;;;;6200943;28;20054;-77
2023/03/05 01:50:26;;;;;;;41.75;17.38;;;4.90;98.80;;;;;;6200787;28;20050;-77
2023/03/05 01:53:28;;;;;;;39.88;17.77;;;4.90;98.90;;;;;;6190536;28;20121;-77
2023/03/05 01:56:31;;;;;;;41.15;19.52;;;4.80;98.80;;;;;;6165547;28;20191;-77
2023/03/05 01:59:34;;;;;;;39.33;17.45;;;4.80;98.90;;;;;;6161588;28;20042;-78
2023/03/05 02:02:35;;;;;;;35.75;17.00;;;4.90;99.00;;;;;;6179375;28;20051;-78
2023/03/05 02:05:40;;;;;;;42.75;18.40;;;4.90;98.90;;;;;;6178805;28;20058;-77
2023/03/05 02:08:41;;;;;;;39.10;18.10;;;4.90;99.00;;;;;;6164860;28;20309;-78
2023/03/05 02:11:44;;;;;;;41.97;17.98;;;4.90;98.90;;;;;;6164453;28;20485;-78
2023/03/05 02:14:49;;;;;;;42.10;18.73;;;4.90;98.90;;;;;;6182778;28;20047;-78
2023/03/05 02:17:51;;;;;;;40.13;17.67;;;4.90;99.00;;;;;;6159516;28;20051;-78
2023/03/05 02:20:53;;;;;;;30.02;17.90;;;4.90;99.00;;;;;;6176176;28;20058;-78
2023/03/05 02:23:56;;;;;;;32.83;16.52;;;4.90;99.00;;;;;;6182636;28;20398;-78
2023/03/05 02:26:58;;;;;;;39.60;22.02;;;4.90;99.10;;;;;;6185903;28;20058;-78
2023/03/05 02:30:00;;;;;;;43.25;18.08;;;4.90;99.10;;;;;;6160667;29;20051;-78
2023/03/05 02:33:02;;;;;;;33.58;16.92;;;4.90;99.10;;;;;;6159157;29;20047;-78
2023/03/05 02:36:05;;;;;;;35.10;17.38;;;4.90;99.10;;;;;;6152360;29;20055;-79
2023/03/05 02:39:09;;;;;;;38.35;19.27;;;4.90;99.10;;;;;;6136955;29;20056;-79
2023/03/05 02:42:11;;;;;;;38.17;15.93;;;4.90;99.10;;;;;;6173987;28;20069;-78
2023/03/05 02:45:13;;;;;;;40.45;19.02;;;4.80;99.20;;;;;;6202813;28;20055;-79
2023/03/05 02:48:15;;;;;;;39.38;17.10;;;4.80;99.20;;;;;;6199503;28;20047;-79
2023/03/05 02:51:17;;;;;;;34.90;17.92;;;4.80;99.30;;;;;;6182737;28;20050;-78
2023/03/05 02:54:21;;;;;;;38.92;16.77;;;4.80;99.30;;;;;;6185607;28;20537;-79
2023/03/05 02:57:22;;;;;;;45.10;17.20;;;4.80;99.40;;;;;;6182845;28;20047;-78
2023/03/05 03:00:25;;;;;;;44.35;19.10;;;4.80;99.40;;;;;;6180456;28;20057;-77
2023/03/05 03:03:26;;;;;;;43.70;17.85;;;4.80;99.50;;;;;;6179111;28;20042;-77
2023/03/05 03:06:28;;;;;;;35.28;18.10;;;4.80;99.50;;;;;;6179477;28;20053;-77
2023/03/05 03:09:33;;;;;;;37.85;19.05;;;4.80;99.60;;;;;;6179431;28;20053;-78
2023/03/05 03:12:37;;;;;;;40.63;19.60;;;4.70;99.60;;;;;;6179059;28;20059;-78
2023/03/05 03:15:39;;;;;;;44.72;19.42;;;4.80;99.70;;;;;;6180297;28;20049;-78
2023/03/05 03:18:41;;;;;;;40.95;17.85;;;4.70;99.70;;;;;;6180104;28;20070;-78
2023/03/05 03:21:42;;;;;;;41.58;18.38;;;4.70;99.70;;;;;;6178775;28;20058;-77
2023/03/05 03:24:45;;;;;;;33.88;17.38;;;4.70;99.70;;;;;;6178500;28;20045;-77
2023/03/05 03:27:47;;;;;;;38.50;17.42;;;4.70;99.80;;;;;;6179905;28;20042;-77
2023/03/05 03:30:49;;;;;;;39.75;17.55;;;4.60;99.80;;;;;;6172200;28;20056;-78
2023/03/05 03:33:50;;;;;;;41.50;19.35;;;4.60;99.80;;;;;;6131578;29;20040;-78
2023/03/05 03:36:53;;;;;;;34.83;18.20;;;4.60;99.90;;;;;;6131805;29;20047;-77
2023/03/05 03:39:56;;;;;;;35.13;20.23;;;4.60;99.90;;;;;;6131317;29;20055;-77
2023/03/05 03:42:58;;;;;;;39.85;17.88;;;4.60;99.90;;;;;;6172766;28;20050;-78
2023/03/05 03:45:59;;;;;;;33.17;18.38;;;4.50;99.90;;;;;;6179201;28;20043;-78
2023/03/05 03:49:01;;;;;;;49.20;20.63;;;4.60;99.90;;;;;;6179466;28;20047;-78
2023/03/05 03:52:04;;;;;;;43.35;19.48;;;4.50;99.90;;;;;;6179504;28;20054;-77
2023/03/05 03:55:07;;;;;;;42.08;20.20;;;4.50;99.90;;;;;;6180662;28;20055;-78
2023/03/05 03:58:09;;;;;;;41.83;19.55;;;4.50;99.90;;;;;;6181490;28;20046;-78
2023/03/05 04:01:11;;;;;;;44.35;18.27;;;4.50;99.90;;;;;;6181256;28;20540;-78
2023/03/05 04:04:13;;;;;;;39.95;19.80;;;4.50;99.90;;;;;;6181706;28;20042;-78
2023/03/05 04:07:15;;;;;;;38.40;16.40;;;4.50;99.90;;;;;;6182851;28;20050;-78
2023/03/05 04:10:18;;;;;;;37.53;19.17;;;4.50;99.90;;;;;;6182442;28;20050;-78
2023/03/05 04:13:20;;;;;;;41.15;19.48;;;4.50;99.90;;;;;;6179596;28;20123;-78
2023/03/05 04:16:22;;;;;;;46.50;19.70;;;4.50;99.90;;;;;;6177899;28;20054;-78
2023/03/05 04:19:23;;;;;;;51.67;21.55;;;4.50;99.90;;;;;;6179096;28;20043;-78
2023/03/05 04:22:25;;;;;;;37.10;17.98;;;4.50;99.90;;;;;;6179767;28;20142;-78
2023/03/05 04:25:28;;;;;;;42.28;17.55;;;4.50;99.90;;;;;;6167974;28;20055;-78
2023/03/05 04:28:30;;;;;;;36.40;19.95;;;4.50;99.90;;;;;;6155009;28;20054;-78
2023/03/05 04:31:32;;;;;;;39.10;19.45;;;4.50;99.90;;;;;;6157937;28;20050;-78
2023/03/05 04:34:34;;;;;;;51.63;18.55;;;4.50;99.90;;;;;;6158607;29;20043;-78
2023/03/05 04:37:35;;;;;;;35.13;17.45;;;4.50;99.90;;;;;;6155020;28;20051;-78
2023/03/05 04:40:39;;;;;;;39.55;17.38;;;4.50;99.90;;;;;;6158244;28;20043;-79
2023/03/05 04:43:41;;;;;;;40.90;19.48;;;4.40;99.90;;;;;;6181750;28;20525;-78
2023/03/05 04:46:42;;;;;;;43.13;20.83;;;4.40;99.90;;;;;;6178117;28;20506;-78
2023/03/05 04:49:45;;;;;;;46.25;19.50;;;4.40;99.90;;;;;;6180366;28;20057;-78
2023/03/05 04:52:47;;;;;;;39.22;19.35;;;4.40;99.90;;;;;;6180018;28;20050;-78
2023/03/05 04:55:54;;;;;;;42.38;20.63;;;4.40;99.90;;;;;;6181552;28;20047;-78
2023/03/05 04:58:55;;;;;;;40.38;18.77;;;4.40;99.90;;;;;;6181805;28;20561;-78
2023/03/05 05:01:57;;;;;;;43.80;18.58;;;4.40;99.90;;;;;;6180636;28;20433;-78
2023/03/05 05:04:59;;;;;;;33.53;17.27;;;4.40;99.90;;;;;;6179086;28;20051;-78
2023/03/05 05:08:01;;;;;;;42.45;17.70;;;4.40;99.90;;;;;;6180963;28;20043;-78
2023/03/05 05:11:06;;;;;;;42.55;21.27;;;4.40;99.90;;;;;;6184297;28;20058;-78
2023/03/05 05:14:07;;;;;;;39.92;20.70;;;4.40;99.90;;;;;;6183694;28;20521;-78
2023/03/05 05:17:09;;;;;;;33.00;18.30;;;4.50;99.90;;;;;;6186503;28;20055;-78
2023/03/05 05:20:13;;;;;;;37.72;19.70;;;4.50;99.90;;;;;;6185761;28;20062;-78
2023/03/05 05:23:16;;;;;;;35.58;18.60;;;4.40;99.90;;;;;;6185238;28;20049;-78
2023/03/05 05:26:19;;;;;;;46.22;19.55;;;4.50;99.90;;;;;;6187582;28;20070;-79
2023/03/05 05:29:21;;;;;;;40.20;21.13;;;4.50;99.90;;;;;;6186483;28;20047;-78
2023/03/05 05:32:24;;;;;;;50.97;20.80;;;4.50;99.90;;;;;;6165448;28;20055;-79
2023/03/05 05:35:25;;;;;;;38.58;18.52;;;4.40;99.90;;;;;;6168497;28;20102;-79
2023/03/05 05:38:27;;;;;;;45.15;17.85;;;4.50;99.90;;;;;;6170531;29;20051;-79
2023/03/05 05:41:30;;;;;;;35.92;17.90;;;4.50;99.90;;;;;;6176930;28;20166;-79
2023/03/05 05:44:33;;;;;;;44.92;20.25;;;4.50;99.90;;;;;;6192630;28;20054;-79
2023/03/05 05:57:07;;;;;;;37.85;16.88;;;4.50;99.90;;;;;;1744943;23;20104;-84
2023/03/05 06:00:12;;;;;;;44.60;19.17;;;4.60;99.90;;;;;;6181806;28;20054;-83
2023/03/05 06:03:14;;;;;;;39.08;18.38;;;4.50;99.90;;;;;;6180745;28;20058;-83
2023/03/05 06:06:18;;;;;;;39.17;20.00;;;4.40;99.90;;;;;;6181849;28;20165;-81
2023/03/05 06:09:19;;;;;;;37.38;17.58;;;4.40;99.90;;;;;;6181737;28;20058;-83
2023/03/05 06:12:23;;;;;;;38.58;19.50;;;4.40;99.90;;;;;;6180653;28;20050;-84
2023/03/05 06:15:24;;;;;;;38.63;18.85;;;4.30;99.90;;;;;;6181057;28;20043;-80
2023/03/05 06:18:26;;;;;;;46.55;21.42;;;4.40;99.90;;;;;;6180027;28;20066;-84
2023/03/05 06:21:28;;;;;;;41.72;17.80;;;4.40;99.90;;;;;;6175943;28;20130;-84
2023/03/05 06:24:30;;;;;;;40.45;21.15;;;4.40;99.90;;;;;;6192802;28;20527;-82
2023/03/05 06:27:34;;;;;;;45.17;21.00;;;4.40;99.90;;;;;;6205428;28;20260;-82
2023/03/05 06:30:36;;;;;;;45.78;20.15;;;4.40;99.90;;;;;;6205955;28;20061;-82
2023/03/05 06:33:39;;;;;;;43.97;19.10;;;4.40;99.90;;;;;;6205654;28;20070;-84
2023/03/05 06:36:42;;;;;;;38.15;19.70;;;4.40;99.90;;;;;;6204983;28;20066;-81
2023/03/05 06:39:44;;;;;;;48.47;19.20;;;4.40;99.90;;;;;;6205132;28;20046;-82
2023/03/05 06:42:47;;;;;;;43.05;22.15;;;4.40;99.90;;;;;;6205080;28;20170;-82
2023/03/05 06:45:49;;;;;;;38.63;20.48;;;4.50;99.90;;;;;;6204705;28;20544;-82
2023/03/05 06:48:51;;;;;;;37.50;18.63;;;4.50;99.90;;;;;;6204907;28;20061;-82
2023/03/05 06:51:53;;;;;;;36.72;17.77;;;4.50;99.90;;;;;;6204697;28;20061;-85
2023/03/05 06:54:55;;;;;;;37.92;20.20;;;4.50;99.90;;;;;;6203735;28;20066;-82
2023/03/05 06:57:58;;;;;;;73.43;40.92;;;4.50;99.90;;;;;;6205026;28;20416;-82
2023/03/05 07:01:00;;;;;;;44.40;19.92;;;4.50;99.90;;;;;;6204914;28;20675;-82
2023/03/05 07:04:02;;;;;;;38.75;19.23;;;4.50;99.90;;;;;;6205548;28;20049;-85
2023/03/05 07:07:03;;;;;;;40.90;19.40;;;4.60;99.90;;;;;;6205576;28;20065;-83
2023/03/05 07:10:07;;;;;;;48.17;22.30;;;4.70;99.90;;;;;;6204301;28;20062;-81
2023/03/05 07:13:10;;;;;;;46.13;19.83;;;4.70;99.90;;;;;;6203118;28;20053;-82
2023/03/05 07:16:15;;;;;;;48.38;21.98;;;4.70;99.90;;;;;;6202462;28;20051;-82
2023/03/05 07:19:17;;;;;;;42.03;23.75;;;4.70;99.90;;;;;;6202756;28;20050;-81
2023/03/05 07:22:18;;;;;;;53.58;22.02;;;4.80;99.90;;;;;;6202431;28;20054;-81
2023/03/05 07:25:20;;;;;;;45.45;21.25;;;4.80;99.90;;;;;;6178428;28;20053;-82
2023/03/05 07:28:24;;;;;;;48.33;20.08;;;4.80;99.90;;;;;;6216937;28;20512;-83
2023/03/05 07:31:29;;;;;;;46.03;19.35;;;4.90;99.90;;;;;;6202804;28;20046;-82
2023/03/05 07:34:31;;;;;;;49.95;19.83;;;4.90;99.90;;;;;;6203756;28;20054;-82
2023/03/05 07:37:33;;;;;;;42.97;19.10;;;5.00;99.90;;;;;;6206287;28;20050;-82
2023/03/05 07:40:35;;;;;;;42.50;21.15;;;5.10;99.90;;;;;;6202925;28;20057;-82
2023/03/05 07:43:38;;;;;;;60.78;23.17;;;5.10;99.90;;;;;;6206402;28;20046;-83
2023/03/05 07:46:40;;;;;;;42.28;19.23;;;5.20;99.90;;;;;;6218315;28;20042;-79
2023/03/05 07:49:42;;;;;;;36.72;20.08;;;5.20;99.90;;;;;;6199814;28;20060;-82
2023/03/05 07:52:44;;;;;;;49.08;20.55;;;5.30;99.90;;;;;;6193919;28;20065;-82
2023/03/05 07:55:47;;;;;;;43.72;22.33;;;5.30;99.90;;;;;;6192910;28;20058;-83
2023/03/05 07:58:50;;;;;;;39.35;21.13;;;5.40;99.90;;;;;;6193707;28;20084;-82
2023/03/05 08:01:51;;;;;;;46.40;22.40;;;5.50;99.90;;;;;;6191611;28;20042;-83
2023/03/05 08:04:53;;;;;;;43.47;20.80;;;5.50;99.90;;;;;;6192052;28;20050;-83
2023/03/05 08:07:55;;;;;;;34.70;18.95;;;5.50;99.90;;;;;;6192081;28;20050;-82
2023/03/05 08:10:56;;;;;;;38.35;19.13;;;5.60;99.90;;;;;;6192669;28;20126;-84
2023/03/05 08:13:59;;;;;;;47.20;23.35;;;5.60;99.90;;;;;;6192570;28;20057;-82
2023/03/05 08:17:01;;;;;;;44.15;21.35;;;5.70;99.90;;;;;;6192091;28;20038;-81
2023/03/05 08:20:09;;;;;;;44.08;23.45;;;5.80;99.90;;;;;;6191438;28;20050;-82
2023/03/05 08:23:11;;;;;;;45.22;22.17;;;5.90;99.90;;;;;;6191469;28;20469;-83
2023/03/05 08:26:14;;;;;;;45.65;25.33;;;5.90;99.90;;;;;;6190142;28;20053;-81
2023/03/05 08:29:17;;;;;;;45.58;22.63;;;5.90;99.90;;;;;;6189376;28;20138;-81
2023/03/05 08:32:19;;;;;;;47.42;20.05;;;6.10;99.90;;;;;;6189932;28;20046;-81
2023/03/05 08:35:21;;;;;;;41.80;21.35;;;6.20;99.90;;;;;;6189516;28;20050;-81
2023/03/05 08:38:22;;;;;;;49.25;22.02;;;6.30;99.80;;;;;;6189427;28;20058;-82
2023/03/05 08:41:24;;;;;;;48.00;20.80;;;6.40;99.70;;;;;;6190661;28;20042;-81
2023/03/05 08:44:27;;;;;;;35.58;19.65;;;6.50;99.50;;;;;;6186096;28;20435;-80
2023/03/05 08:47:29;;;;;;;54.03;21.60;;;6.50;99.40;;;;;;6188209;28;20701;-82
2023/03/05 08:50:31;;;;;;;42.22;21.70;;;6.40;99.50;;;;;;6195851;28;20062;-82
2023/03/05 08:53:33;;;;;;;41.00;20.48;;;6.40;99.30;;;;;;6194512;28;20058;-82
2023/03/05 08:56:35;;;;;;;40.80;23.85;;;6.40;99.30;;;;;;6196101;28;20046;-82
2023/03/05 08:59:38;;;;;;;44.72;22.95;;;6.50;99.40;;;;;;6194580;28;20053;-81
2023/03/05 09:02:39;;;;;;;40.17;21.75;;;6.70;99.30;;;;;;6194394;28;20051;-79
2023/03/05 09:05:41;;;;;;;41.88;19.60;;;6.80;99.00;;;;;;6196455;28;20041;-80
2023/03/05 09:08:43;;;;;;;40.10;20.30;;;6.90;98.80;;;;;;6193437;28;20501;-81
2023/03/05 09:11:44;;;;;;;44.33;28.52;;;6.90;98.50;;;;;;6191685;28;21004;-82
2023/03/05 09:14:47;;;;;;;41.33;20.73;;;6.90;98.60;;;;;;6191822;28;20492;-80
2023/03/05 09:17:49;;;;;;;43.45;23.42;;;6.90;98.50;;;;;;6192479;28;20142;-81
2023/03/05 09:20:51;;;;;;;42.88;22.95;;;6.80;98.50;;;;;;6191148;28;20512;-82
2023/03/05 09:23:58;;;;;;;49.40;25.08;;;6.80;98.50;;;;;;6184729;28;20085;-82
2023/03/05 09:27:00;;;;;;;42.03;20.15;;;6.80;98.60;;;;;;6171700;28;20378;-81
2023/03/05 09:30:04;;;;;;;37.75;18.88;;;6.80;98.50;;;;;;6191379;28;20076;-81
2023/03/05 09:33:06;;;;;;;39.53;21.05;;;6.90;98.50;;;;;;6188782;28;20400;-82
2023/03/05 09:36:18;;;;;;;45.97;22.40;;;7.00;98.50;;;;;;6183194;28;20054;-81
2023/03/05 09:39:20;;;;;;;44.22;23.73;;;7.10;98.50;;;;;;6168353;28;20054;-81
2023/03/05 09:42:34;;;;;;;36.55;23.48;;;7.20;98.40;;;;;;6168117;28;20499;-81
2023/03/05 09:45:43;;;;;;;33.70;22.55;;;7.20;98.70;;;;;;6188221;28;20034;-82
2023/03/05 09:48:50;;;;;;;36.70;21.48;;;7.20;98.30;;;;;;6192402;28;20038;-80
2023/03/05 09:52:00;;;;;;;42.30;20.80;;;7.30;98.30;;;;;;6185176;28;20058;-82
2023/03/05 09:55:02;;;;;;;37.20;20.42;;;7.30;98.20;;;;;;6168734;28;20055;-81
2023/03/05 09:58:10;;;;;;;36.63;17.73;;;7.40;98.30;;;;;;6190756;28;20050;-81
2023/03/05 10:01:18;;;;;;;36.72;20.35;;;7.40;98.40;;;;;;6191886;28;20405;-82
2023/03/05 10:04:25;;;;;;;30.90;18.60;;;7.60;98.30;;;;;;6191992;28;20053;-82
2023/03/05 10:07:30;;;;;;;39.28;19.08;;;7.50;98.50;;;;;;6192536;28;20057;-82
2023/03/05 10:10:40;;;;;;;38.17;20.13;;;7.60;98.20;;;;;;6194948;28;20057;-82
2023/03/05 10:13:44;;;;;;;31.73;18.83;;;7.70;98.20;;;;;;6192226;28;20117;-83
2023/03/05 10:17:04;;;;;;;38.60;21.48;;;7.70;98.10;;;;;;6192572;28;20046;-84
2023/03/05 10:20:39;;;;;;;37.75;20.58;;;7.70;98.00;;;;;;6194804;28;20050;-81
2023/03/05 10:23:58;;;;;;;31.13;16.98;;;7.80;98.00;;;;;;6188997;28;20050;-81
2023/03/05 10:27:06;;;;;;;44.30;18.48;;;7.70;97.90;;;;;;6193961;28;20702;-81
2023/03/05 10:30:30;;;;;;;33.58;19.45;;;7.70;97.90;;;;;;6194477;28;20067;-82
2023/03/05 10:33:43;;;;;;;33.40;17.92;;;7.70;98.00;;;;;;6193362;28;20517;-82
2023/03/05 10:36:55;;;;;;;37.88;19.85;;;7.90;98.00;;;;;;6191107;28;20053;-82
2023/03/05 10:40:14;;;;;;;32.08;19.83;;;8.00;98.10;;;;;;6192728;28;20054;-83
2023/03/05 10:43:23;;;;;;;37.08;19.58;;;8.00;97.90;;;;;;6190983;28;20440;-83
2023/03/05 10:46:31;;;;;;;29.38;17.17;;;8.00;97.90;;;;;;6193048;28;20045;-82
2023/03/05 10:49:43;;;;;;;31.95;16.90;;;8.00;97.70;;;;;;6193308;28;20448;-81
2023/03/05 10:52:49;;;;;;;36.17;20.23;;;7.90;97.70;;;;;;6179773;28;20047;-83
2023/03/05 10:55:55;;;;;;;33.90;17.95;;;7.90;98.00;;;;;;6169412;28;20360;-82
2023/03/05 10:58:56;;;;;;;28.48;17.83;;;7.80;97.70;;;;;;6171158;28;20105;-81
2023/03/05 11:02:04;;;;;;;32.47;16.25;;;7.80;97.70;;;;;;6193361;28;20092;-82
2023/03/05 11:05:38;;;;;;;34.22;19.33;;;7.80;97.60;;;;;;6191216;28;20114;-82
2023/03/05 11:08:41;;;;;;;41.42;15.60;;;7.80;97.70;;;;;;6193333;28;20102;-83
2023/03/05 11:11:42;;;;;;;26.98;15.98;;;7.80;97.70;;;;;;6187297;28;20046;-83
2023/03/05 11:14:46;;;;;;;27.55;16.58;;;7.90;97.70;;;;;;6173032;28;20050;-85
2023/03/05 11:18:05;;;;;;;28.45;17.48;;;8.00;97.70;;;;;;6171319;28;20082;-80
2023/03/05 11:21:09;;;;;;;;;;;8.10;97.50;;;;;;6173331;28;20115;-85
2023/03/05 11:24:13;;;;;;;26.83;16.10;;;8.20;97.50;;;;;;6169540;28;20381;-83
2023/03/05 11:27:24;;;;;;;28.90;17.08;;;8.20;97.30;;;;;;6171291;28;20513;-83
2023/03/05 11:30:28;;;;;;;34.60;18.00;;;8.30;97.30;;;;;;6168192;28;20069;-83
2023/03/05 11:33:31;;;;;;;32.15;17.98;;;8.30;97.00;;;;;;6184245;28;20046;-81
2023/03/05 11:36:36;;;;;;;33.50;18.58;;;8.10;97.00;;;;;;6191899;28;20058;-81
2023/03/05 11:39:39;;;;;;;29.35;15.55;;;8.20;97.10;;;;;;6191284;28;20042;-83
2023/03/05 11:42:41;;;;;;;26.13;15.68;;;8.10;97.00;;;;;;6186258;28;20057;-82
2023/03/05 11:45:45;;;;;;;28.45;18.92;;;8.20;97.00;;;;;;6187113;28;20135;-81
2023/03/05 11:48:47;;;;;;;23.98;16.58;;;8.20;96.90;;;;;;6170503;28;20057;-80
2023/03/05 11:52:01;;;;;;;35.88;22.33;;;8.20;96.80;;;;;;6162429;28;20066;-80
2023/03/05 11:55:08;;;;;;;25.85;15.65;;;8.20;96.80;;;;;;6162881;28;20057;-81
2023/03/05 11:58:26;;;;;;;27.10;17.08;;;8.20;96.80;;;;;;6186600;28;20050;-82
2023/03/05 12:01:31;;;;;;;30.23;18.60;;;8.20;96.80;;;;;;6183741;28;20097;-81
2023/03/05 12:04:34;;;;;;;29.35;16.75;;;8.20;96.70;;;;;;6171996;28;20050;-81
2023/03/05 12:07:42;;;;;;;28.23;15.32;;;8.20;96.60;;;;;;6164428;28;20505;-82
2023/03/05 12:10:43;;;;;;;31.05;18.00;;;8.20;96.70;;;;;;6165639;28;20059;-81
2023/03/05 12:13:50;;;;;;;27.73;15.70;;;8.20;96.60;;;;;;6188021;28;20046;-84
2023/03/05 12:17:01;;;;;;;26.58;15.48;;;8.20;96.60;;;;;;6178435;28;20066;-81
2023/03/05 12:20:11;;;;;;;23.40;14.15;;;8.20;96.50;;;;;;6187258;28;20051;-80
2023/03/05 12:23:18;;;;;;;27.92;14.85;;;8.20;96.50;;;;;;6185416;28;20058;-80
2023/03/05 12:26:54;;;;;;;23.75;13.95;;;8.20;96.20;;;;;;6169073;28;20054;-82
2023/03/05 12:30:00;;;;;;;29.52;15.82;;;8.10;96.30;;;;;;6188141;28;20082;-81
2023/03/05 12:33:03;;;;;;;28.15;14.48;;;8.00;96.40;;;;;;6189853;28;20050;-84
2023/03/05 12:36:32;;;;;;;26.95;15.45;;;8.10;96.50;;;;;;6191170;28;20043;-82
2023/03/05 12:39:56;;;;;;;23.02;13.63;;;8.10;96.20;;;;;;6155867;28;20042;-81
2023/03/05 12:43:01;;;;;;;25.52;14.55;;;8.10;96.20;;;;;;6191167;28;20058;-82
2023/03/05 12:46:24;;;;;;;21.73;13.45;;;7.90;96.00;;;;;;6167689;28;20054;-81
2023/03/05 12:49:34;;;;;;;22.33;11.88;;;7.80;96.20;;;;;;6186764;28;20046;-83
2023/03/05 12:52:38;;;;;;;23.50;13.88;;;7.70;96.10;;;;;;6192892;28;20069;-81
2023/03/05 12:55:54;;;;;;;31.80;14.65;;;7.60;96.30;;;;;;6193862;28;20046;-82
2023/03/05 12:59:12;;;;;;;22.17;12.88;;;7.60;96.30;;;;;;6205674;28;20050;-81
2023/03/05 13:02:22;;;;;;;24.33;12.95;;;7.50;96.30;;;;;;6221009;28;20062;-80
2023/03/05 13:05:27;;;;;;;25.38;15.25;;;7.50;96.40;;;;;;6209893;28;20054;-81
2023/03/05 13:08:31;;;;;;;23.75;14.43;;;7.50;96.40;;;;;;6197591;28;20533;-80
2023/03/05 13:11:38;;;;;;;27.50;14.50;;;7.50;96.50;;;;;;6212511;23;20057;-79
2023/03/05 13:14:45;;;;;;;16.90;13.95;;;7.50;96.50;;;;;;6181467;28;20065;-79
2023/03/05 13:17:54;;;;;;;22.95;13.40;;;7.50;96.50;;;;;;6177643;28;20409;-78
2023/03/05 13:21:04;;;;;;;24.95;15.88;;;7.50;96.60;;;;;;6191334;28;20046;-79
2023/03/05 13:24:17;;;;;;;28.08;16.30;;;7.50;96.60;;;;;;6198987;28;20130;-79
2023/03/05 13:27:30;;;;;;;27.80;16.33;;;7.50;96.60;;;;;;6200254;28;20050;-79
2023/03/05 13:30:31;;;;;;;27.75;16.10;;;7.40;97.00;;;;;;6201841;28;20477;-80
2023/03/05 13:33:36;;;;;;;29.92;16.48;;;7.50;96.70;;;;;;6201383;28;20050;-80
2023/03/05 13:36:39;;;;;;;39.03;17.63;;;7.40;96.70;;;;;;6209814;28;20077;-79
2023/03/05 13:39:49;;;;;;;28.15;16.50;;;7.40;96.90;;;;;;6201104;28;20050;-78
2023/03/05 13:42:53;;;;;;;27.83;17.67;;;7.40;96.90;;;;;;6210726;28;20117;-78
2023/03/05 13:45:57;;;;;;;35.08;19.33;;;7.30;97.00;;;;;;6209457;28;20128;-80
2023/03/05 13:49:17;;;;;;;28.50;15.40;;;7.30;97.00;;;;;;6198471;28;20057;-80
2023/03/05 13:52:24;;;;;;;31.38;17.85;;;7.20;97.10;;;;;;6212953;28;20055;-79
2023/03/05 13:55:26;;;;;;;49.42;18.60;;;7.20;97.10;;;;;;6212720;28;20057;-80
2023/03/05 13:58:48;;;;;;;36.05;18.70;;;7.20;97.10;;;;;;6214165;28;20046;-80
2023/03/05 14:01:51;;;;;;;28.77;16.48;;;7.10;97.20;;;;;;6209914;28;20050;-80
2023/03/05 14:04:52;;;;;;;37.47;21.17;;;7.10;97.20;;;;;;6209742;28;20440;-80
2023/03/05 14:07:55;;;;;;;38.58;19.75;;;7.10;97.30;;;;;;6205254;28;20046;-80
2023/03/05 14:14:17;;;;;;;31.13;17.92;;;7.00;97.30;;;;;;6029465;26;20066;-80
2023/03/05 14:17:39;;;;;;;31.73;18.63;;;7.10;97.30;;;;;;6169764;28;20043;-80
2023/03/05 14:22:03;;;;;;;26.98;17.52;;;7.00;97.50;;;;;;6170448;28;20103;-79
2023/03/05 14:25:52;;;;;;;31.52;16.58;;;7.00;97.60;;;;;;6176312;28;20215;-80
2023/03/05 14:29:01;;;;;;;31.40;19.33;;;7.00;97.50;;;;;;6175325;28;20058;-80
2023/03/05 14:32:19;;;;;;;31.80;17.33;;;7.00;97.50;;;;;;6165714;28;20097;-80
2023/03/05 14:35:24;;;;;;;33.90;17.55;;;6.90;97.50;;;;;;6169204;28;20683;-80
2023/03/05 14:38:29;;;;;;;27.58;15.57;;;6.90;97.50;;;;;;6177498;28;20046;-80
2023/03/05 14:41:36;;;;;;;38.50;22.13;;;6.90;97.60;;;;;;6175139;28;20605;-81
2023/03/05 14:44:37;;;;;;;31.67;18.08;;;6.90;97.70;;;;;;6162197;28;22698;-80
2023/03/05 14:47:41;;;;;;;33.97;17.70;;;7.00;97.80;;;;;;6152021;28;21854;-79
2023/03/05 14:50:50;;;;;;;35.53;18.20;;;7.00;97.80;;;;;;6153367;28;20370;-79
2023/03/05 14:53:56;;;;;;;31.65;17.10;;;7.00;97.80;;;;;;6143442;28;20047;-82
2023/03/05 14:56:59;;;;;;;34.75;19.67;;;6.90;97.80;;;;;;6142623;28;20050;-81
2023/03/05 15:00:00;;;;;;;32.95;17.73;;;6.90;97.80;;;;;;6158057;28;20129;-82
2023/03/05 15:03:03;;;;;;;32.72;18.33;;;6.80;97.80;;;;;;6167700;28;20400;-79
2023/03/05 15:06:08;;;;;;;32.42;15.70;;;6.90;98.10;;;;;;6176994;28;20729;-80
2023/03/05 15:09:16;;;;;;;27.58;15.45;;;7.00;98.40;;;;;;6173578;28;20046;-81
2023/03/05 15:12:23;;;;;;;39.90;19.48;;;7.20;98.60;;;;;;6167433;28;20057;-80
2023/03/05 15:15:27;;;;;;;27.67;15.73;;;7.50;98.30;;;;;;6156408;28;20062;-82
2023/03/05 15:22:33;;;;;;;29.30;16.15;;;7.40;97.80;;;;;;6158446;28;20127;-79
2023/03/05 15:25:37;;;;;;;33.10;18.10;;;7.20;97.90;;;;;;6135101;28;20083;-80
2023/03/05 15:37:46;;;;;;;;;;;;;;;;;;;;;
2023/03/05 15:40:50;;;;;;;28.15;16.30;;;6.90;97.90;;;;;;6146319;28;20076;-81
2023/03/05 15:43:52;;;;;;;34.33;18.25;;;6.90;98.00;;;;;;6160613;28;20039;-82
2023/03/05 15:46:55;;;;;;;33.42;16.02;;;6.90;97.90;;;;;;6180243;28;20047;-82
2023/03/05 15:49:57;;;;;;;28.17;16.30;;;6.80;98.00;;;;;;6180716;28;20055;-81
2023/03/05 15:52:58;;;;;;;25.48;17.23;;;6.90;98.10;;;;;;6162487;28;20126;-81
2023/03/05 15:56:02;;;;;;;31.38;17.05;;;6.80;98.00;;;;;;6164285;28;20054;-81
2023/03/05 15:59:04;;;;;;;32.67;15.93;;;6.80;98.10;;;;;;6176972;28;20055;-81
2023/03/05 16:02:07;;;;;;;36.42;18.52;;;6.80;98.10;;;;;;6177494;28;20121;-82
2023/03/05 16:05:10;;;;;;;28.38;17.35;;;6.70;98.10;;;;;;6174913;28;20050;-82
2023/03/05 16:08:11;;;;;;;27.55;17.63;;;6.70;98.20;;;;;;6177231;28;20050;-82
2023/03/05 16:11:15;;;;;;;29.95;15.60;;;6.70;98.20;;;;;;6176468;28;20062;-81
2023/03/05 16:14:19;;;;;;;33.67;17.00;;;6.70;98.20;;;;;;6156437;28;20126;-82
2023/03/05 16:17:22;;;;;;;35.67;17.42;;;6.70;98.20;;;;;;6166909;28;20121;-81